createdAt,value
2023-08-30T00:01:22.295Z,6.47
2023-08-30T00:03:49.578Z,6.00
2023-08-30T00:06:17.175Z,5.70
2023-08-30T00:08:44.177Z,5.90
2023-08-30T00:11:10.932Z,5.90
2023-08-30T00:13:38.024Z,5.97
2023-08-30T00:16:05.150Z,6.17
2023-08-30T00:18:32.317Z,7.67
2023-08-30T00:21:02.127Z,6.40
2023-08-30T00:23:29.005Z,6.63
2023-08-30T00:25:55.987Z,6.60
2023-08-30T00:28:22.904Z,6.30
2023-08-30T00:30:55.583Z,6.73
2023-08-30T00:33:22.791Z,7.43
2023-08-30T00:35:57.230Z,6.87
2023-08-30T00:38:24.360Z,7.17
2023-08-30T00:40:51.233Z,6.77
2023-08-30T00:43:18.203Z,6.37
2023-08-30T00:45:45.836Z,6.67
2023-08-30T00:48:13.717Z,7.33
2023-08-30T00:50:41.362Z,6.70
2023-08-30T00:53:09.002Z,7.17
2023-08-30T00:55:36.790Z,6.40
2023-08-30T00:58:04.026Z,6.93
2023-08-30T01:00:32.110Z,7.17
2023-08-30T01:02:59.314Z,6.93
2023-08-30T01:05:26.553Z,7.20
2023-08-30T01:07:53.903Z,6.30
2023-08-30T01:10:28.230Z,7.07
2023-08-30T01:13:03.436Z,8.00
2023-08-30T01:15:31.584Z,7.57
2023-08-30T01:18:00.201Z,8.00
2023-08-30T01:20:28.689Z,6.60
2023-08-30T01:23:18.265Z,6.37
2023-08-30T01:26:09.594Z,8.63
2023-08-30T01:28:38.834Z,8.37
2023-08-30T01:31:07.887Z,7.30
2023-08-30T01:33:35.664Z,6.97
2023-08-30T01:36:04.910Z,7.20
2023-08-30T01:38:33.255Z,7.47
2023-08-30T01:41:03.620Z,7.53
2023-08-30T01:43:31.705Z,10.17
2023-08-30T01:46:00.453Z,9.47
2023-08-30T01:48:29.002Z,10.37
2023-08-30T01:51:00.344Z,11.93
2023-08-30T01:53:29.022Z,12.43
2023-08-30T01:55:55.930Z,13.43
2023-08-30T01:58:22.798Z,14.50
2023-08-30T02:00:49.896Z,14.10
2023-08-30T02:03:16.991Z,16.93
2023-08-30T02:06:04.298Z,13.23
2023-08-30T02:08:42.281Z,12.57
2023-08-30T02:11:16.205Z,17.87
2023-08-30T02:13:46.117Z,15.17
2023-08-30T02:16:15.285Z,21.60
2023-08-30T02:18:42.783Z,15.83
2023-08-30T02:21:09.992Z,13.97
2023-08-30T02:23:36.785Z,13.77
2023-08-30T02:26:04.580Z,17.70
2023-08-30T02:28:31.477Z,13.70
2023-08-30T02:30:58.555Z,17.10
2023-08-30T02:33:25.506Z,15.20
2023-08-30T02:35:52.407Z,16.90
2023-08-30T02:38:19.433Z,17.97
2023-08-30T02:40:46.478Z,16.07
2023-08-30T02:43:13.977Z,19.53
2023-08-30T02:45:41.150Z,20.27
2023-08-30T02:48:08.251Z,23.87
2023-08-30T02:50:35.293Z,21.13
2023-08-30T02:53:02.261Z,20.93
2023-08-30T02:55:31.801Z,22.73
2023-08-30T02:57:59.710Z,22.40
2023-08-30T03:00:26.806Z,21.27
2023-08-30T03:02:53.805Z,27.90
2023-08-30T03:05:20.944Z,23.87
2023-08-30T03:07:48.048Z,27.70
2023-08-30T03:10:14.880Z,29.73
2023-08-30T03:12:41.757Z,31.10
2023-08-30T03:15:09.045Z,25.97
2023-08-30T03:17:37.358Z,33.90
2023-08-30T03:20:07.852Z,31.27
2023-08-30T03:22:34.760Z,34.43
2023-08-30T03:25:04.444Z,28.00
2023-08-30T03:27:32.017Z,26.23
2023-08-30T03:29:58.979Z,30.93
2023-08-30T03:32:25.844Z,29.80
2023-08-30T03:34:53.203Z,28.63
2023-08-30T03:37:20.162Z,33.77
2023-08-30T03:39:47.139Z,38.30
2023-08-30T03:42:14.032Z,40.20
2023-08-30T03:44:41.041Z,43.93
2023-08-30T03:47:08.775Z,33.40
2023-08-30T03:49:37.607Z,37.03
2023-08-30T03:52:04.875Z,35.20
2023-08-30T03:54:32.607Z,40.07
2023-08-30T03:56:59.400Z,40.97
2023-08-30T03:59:28.543Z,37.57
2023-08-30T04:01:55.599Z,34.07
2023-08-30T04:04:22.754Z,35.33
2023-08-30T04:06:49.602Z,34.77
2023-08-30T04:09:16.460Z,32.47
2023-08-30T04:11:43.734Z,30.17
2023-08-30T04:14:10.724Z,31.63
2023-08-30T04:16:37.665Z,30.90
2023-08-30T04:19:06.683Z,34.63
2023-08-30T04:21:33.645Z,29.97
2023-08-30T04:24:00.441Z,29.73
2023-08-30T04:26:27.411Z,27.63
2023-08-30T04:28:54.406Z,28.93
2023-08-30T04:31:21.295Z,26.87
2023-08-30T04:33:48.050Z,28.87
2023-08-30T04:36:14.838Z,23.17
2023-08-30T04:38:52.269Z,23.53
2023-08-30T04:41:23.602Z,22.83
2023-08-30T04:43:50.422Z,20.57
2023-08-30T04:46:17.276Z,20.37
2023-08-30T04:48:44.077Z,19.57
2023-08-30T04:51:10.891Z,18.90
2023-08-30T04:53:37.779Z,18.53
2023-08-30T04:56:15.423Z,18.17
2023-08-30T04:58:42.548Z,17.70
2023-08-30T05:01:09.926Z,18.83
2023-08-30T05:03:37.077Z,16.57
2023-08-30T05:06:04.206Z,17.53
2023-08-30T05:08:31.121Z,17.10
2023-08-30T05:10:58.424Z,16.43
2023-08-30T05:13:25.403Z,15.40
2023-08-30T05:15:52.494Z,14.37
2023-08-30T05:18:20.825Z,15.07
2023-08-30T05:20:47.817Z,13.87
2023-08-30T05:23:14.677Z,14.90
2023-08-30T05:25:41.900Z,15.03
2023-08-30T05:28:09.301Z,14.23
2023-08-30T05:30:36.524Z,13.90
2023-08-30T05:33:03.817Z,12.27
2023-08-30T05:35:31.720Z,15.63
2023-08-30T05:37:58.892Z,14.03
2023-08-30T05:40:25.946Z,14.17
2023-08-30T05:42:54.545Z,13.93
2023-08-30T05:45:21.672Z,12.40
2023-08-30T05:47:49.302Z,12.90
2023-08-30T05:50:16.448Z,15.83
2023-08-30T05:52:45.777Z,11.97
2023-08-30T05:55:12.784Z,11.33
2023-08-30T05:57:39.760Z,11.43
2023-08-30T06:00:07.455Z,10.93
2023-08-30T06:02:34.460Z,9.97
2023-08-30T06:05:01.386Z,11.20
2023-08-30T06:07:28.685Z,10.30
2023-08-30T06:09:58.802Z,10.40
2023-08-30T06:12:26.755Z,11.13
2023-08-30T06:14:54.012Z,10.27
2023-08-30T06:17:21.270Z,10.37
2023-08-30T06:19:48.479Z,10.37
2023-08-30T06:22:15.545Z,11.07
2023-08-30T06:24:42.503Z,10.17
2023-08-30T06:27:09.367Z,10.13
2023-08-30T06:29:36.263Z,10.10
2023-08-30T06:32:03.793Z,19.17
2023-08-30T06:34:30.781Z,10.67
2023-08-30T06:36:57.729Z,14.43
2023-08-30T06:39:24.626Z,10.33
2023-08-30T06:41:51.676Z,10.03
2023-08-30T06:44:18.727Z,9.80
2023-08-30T06:46:45.670Z,9.10
2023-08-30T06:49:12.764Z,9.07
2023-08-30T06:51:39.792Z,9.53
2023-08-30T06:54:06.629Z,9.87
2023-08-30T06:56:33.602Z,8.27
2023-08-30T06:59:00.413Z,9.60
2023-08-30T07:01:27.516Z,9.63
2023-08-30T07:03:54.298Z,8.43
2023-08-30T07:06:21.295Z,9.37
2023-08-30T07:08:48.186Z,8.23
2023-08-30T07:11:27.811Z,7.97
2023-08-30T07:14:01.295Z,7.77
2023-08-30T07:16:28.314Z,8.20
2023-08-30T07:18:55.067Z,6.87
2023-08-30T07:21:21.980Z,8.27
2023-08-30T07:23:48.860Z,7.47
2023-08-30T07:26:15.797Z,7.73
2023-08-30T07:28:43.686Z,7.80
2023-08-30T07:31:10.811Z,7.30
2023-08-30T07:33:37.727Z,8.17
2023-08-30T07:36:06.019Z,7.93
2023-08-30T07:38:33.648Z,8.63
2023-08-30T07:41:00.701Z,7.57
2023-08-30T07:43:27.494Z,10.63
2023-08-30T07:45:58.014Z,8.67
2023-08-30T07:48:25.022Z,8.23
2023-08-30T07:50:51.938Z,8.00
2023-08-30T07:53:18.858Z,8.10
2023-08-30T07:55:52.403Z,6.33
2023-08-30T07:58:19.474Z,7.17
2023-08-30T08:00:46.361Z,7.13
2023-08-30T08:03:13.373Z,7.30
2023-08-30T08:05:42.311Z,6.57
2023-08-30T08:08:09.397Z,6.70
2023-08-30T08:10:39.002Z,5.60
2023-08-30T08:13:05.962Z,7.87
2023-08-30T08:15:33.871Z,6.67
2023-08-30T08:18:01.969Z,6.10
2023-08-30T08:20:30.419Z,6.30
2023-08-30T08:22:57.574Z,6.57
2023-08-30T08:25:25.220Z,6.13
2023-08-30T08:27:55.260Z,7.10
2023-08-30T08:30:22.307Z,7.07
2023-08-30T08:32:51.591Z,7.97
2023-08-30T08:35:18.383Z,8.53
2023-08-30T08:37:45.266Z,8.53
2023-08-30T08:40:12.430Z,8.30
2023-08-30T08:42:39.428Z,8.07
2023-08-30T08:45:06.778Z,7.47
2023-08-30T08:47:33.824Z,8.47
2023-08-30T08:50:01.759Z,8.80
2023-08-30T08:52:33.068Z,8.50
2023-08-30T08:55:06.020Z,10.27
2023-08-30T08:57:33.014Z,8.37
2023-08-30T09:00:00.014Z,7.63
2023-08-30T09:02:27.145Z,6.80
2023-08-30T09:04:54.986Z,6.77
2023-08-30T09:07:22.387Z,7.10
2023-08-30T09:09:50.240Z,7.00
2023-08-30T09:12:17.274Z,7.00
2023-08-30T09:14:55.699Z,7.50
2023-08-30T09:17:22.784Z,5.97
2023-08-30T09:19:49.871Z,6.57
2023-08-30T09:22:16.852Z,7.10
2023-08-30T09:24:43.809Z,7.40
2023-08-30T09:27:10.643Z,7.20
2023-08-30T09:29:37.609Z,6.53
2023-08-30T09:32:04.913Z,6.20
2023-08-30T09:34:31.846Z,39.17
2023-08-30T09:37:03.570Z,11.83
2023-08-30T09:39:32.391Z,6.50
2023-08-30T09:41:59.841Z,6.43
2023-08-30T09:44:31.766Z,7.00
2023-08-30T09:46:59.177Z,6.20
2023-08-30T09:49:28.689Z,6.60
2023-08-30T09:51:56.300Z,5.93
2023-08-30T09:54:38.434Z,5.80
2023-08-30T09:57:08.527Z,4.80
2023-08-30T09:59:36.122Z,6.27
2023-08-30T10:02:03.589Z,5.83
2023-08-30T10:04:32.450Z,5.20
2023-08-30T10:06:59.920Z,5.90
2023-08-30T10:09:27.227Z,5.80
2023-08-30T10:11:54.640Z,7.33
2023-08-30T10:14:21.830Z,6.47
2023-08-30T10:16:50.624Z,5.83
2023-08-30T10:19:28.544Z,6.07
2023-08-30T10:22:16.216Z,5.53
2023-08-30T10:25:10.195Z,6.30
2023-08-30T10:27:42.785Z,5.57
2023-08-30T10:30:11.597Z,6.60
2023-08-30T10:32:42.421Z,5.50
2023-08-30T10:35:16.188Z,4.83
2023-08-30T10:37:43.989Z,5.53
2023-08-30T10:40:12.480Z,6.17
2023-08-30T10:42:39.442Z,7.13
2023-08-30T10:45:14.169Z,5.10
2023-08-30T10:47:42.030Z,6.27
2023-08-30T10:50:11.689Z,26.87
2023-08-30T10:52:39.129Z,5.23
2023-08-30T10:55:14.466Z,6.00
2023-08-30T10:57:45.967Z,6.13
2023-08-30T11:00:19.632Z,6.00
2023-08-30T11:02:49.224Z,6.30
2023-08-30T11:05:24.860Z,7.70
2023-08-30T11:07:52.771Z,7.17
2023-08-30T11:10:20.914Z,6.20
2023-08-30T11:12:51.334Z,6.23
2023-08-30T11:15:19.526Z,6.53
2023-08-30T11:17:46.857Z,6.03
2023-08-30T11:20:16.292Z,5.27
2023-08-30T11:22:45.083Z,6.23
2023-08-30T11:25:13.632Z,5.73
2023-08-30T11:27:41.034Z,12.73
2023-08-30T11:30:09.804Z,8.40
2023-08-30T11:32:38.894Z,7.90
2023-08-30T11:35:07.100Z,8.20
2023-08-30T11:37:34.697Z,10.30
2023-08-30T11:40:04.394Z,8.50
2023-08-30T11:42:31.804Z,7.80
2023-08-30T11:45:01.058Z,7.97
2023-08-30T11:47:28.716Z,12.30
2023-08-30T11:49:57.760Z,8.87
2023-08-30T11:52:26.539Z,8.07
2023-08-30T11:54:54.085Z,12.27
2023-08-30T11:57:22.616Z,9.67
2023-08-30T11:59:51.376Z,9.20
2023-08-30T12:02:19.695Z,8.27
2023-08-30T12:04:48.911Z,9.23
2023-08-30T12:07:27.844Z,8.80
2023-08-30T12:10:09.212Z,8.90
2023-08-30T12:12:39.361Z,8.37
2023-08-30T12:15:13.157Z,8.67
2023-08-30T12:17:40.090Z,8.53
2023-08-30T12:20:07.680Z,7.47
2023-08-30T12:22:39.553Z,9.13
2023-08-30T12:25:28.331Z,10.50
2023-08-30T12:27:55.263Z,7.67
2023-08-30T12:30:22.368Z,9.40
2023-08-30T12:32:50.046Z,8.77
2023-08-30T12:35:17.133Z,7.97
2023-08-30T12:37:44.331Z,9.43
2023-08-30T12:40:12.147Z,8.27
2023-08-30T12:42:38.954Z,8.83
2023-08-30T12:45:06.745Z,9.27
2023-08-30T12:47:33.754Z,7.90
2023-08-30T12:50:00.817Z,9.13
2023-08-30T12:52:27.907Z,7.77
2023-08-30T12:54:55.477Z,8.07
2023-08-30T12:57:22.708Z,8.43
2023-08-30T12:59:49.753Z,6.83
2023-08-30T13:02:16.890Z,7.30
2023-08-30T13:04:43.968Z,7.30
2023-08-30T13:07:10.761Z,6.80
2023-08-30T13:09:37.640Z,7.20
2023-08-30T13:12:05.398Z,7.20
2023-08-30T13:14:32.516Z,7.60
2023-08-30T13:17:00.687Z,7.27
2023-08-30T13:19:27.773Z,6.70
2023-08-30T13:21:54.682Z,6.60
2023-08-30T13:24:21.814Z,6.87
2023-08-30T13:26:50.221Z,7.70
2023-08-30T13:29:17.687Z,6.47
2023-08-30T13:31:44.679Z,7.87
2023-08-30T13:34:11.682Z,6.80
2023-08-30T13:36:40.506Z,6.67
2023-08-30T13:39:07.493Z,7.20
2023-08-30T13:41:34.559Z,5.97
2023-08-30T13:44:02.830Z,8.80
2023-08-30T13:46:29.990Z,5.63
2023-08-30T13:48:57.242Z,8.03
2023-08-30T13:51:25.499Z,5.77
2023-08-30T13:53:53.051Z,7.00
2023-08-30T13:56:20.913Z,5.13
2023-08-30T13:58:47.928Z,13.23
2023-08-30T14:01:15.077Z,6.40
2023-08-30T14:03:42.304Z,7.60
2023-08-30T14:06:09.372Z,5.53
2023-08-30T14:08:37.220Z,6.63
2023-08-30T14:11:05.138Z,5.97
2023-08-30T14:13:35.254Z,6.03
2023-08-30T14:16:04.312Z,6.77
2023-08-30T14:18:31.701Z,5.93
2023-08-30T14:20:59.690Z,6.57
2023-08-30T14:23:27.297Z,6.70
2023-08-30T14:25:58.122Z,5.13
2023-08-30T14:28:26.140Z,6.67
2023-08-30T14:30:53.769Z,7.03
2023-08-30T14:33:23.757Z,6.87
2023-08-30T14:35:50.874Z,6.47
2023-08-30T14:38:17.664Z,5.90
2023-08-30T14:40:44.522Z,5.73
2023-08-30T14:43:11.528Z,5.77
2023-08-30T14:45:41.395Z,5.90
2023-08-30T14:48:10.170Z,5.17
2023-08-30T14:50:37.506Z,8.13
2023-08-30T14:53:05.798Z,5.50
2023-08-30T14:55:32.933Z,5.33
2023-08-30T14:57:59.971Z,5.70
2023-08-30T15:00:27.315Z,5.33
2023-08-30T15:02:54.812Z,7.10
2023-08-30T15:05:21.781Z,5.07
2023-08-30T15:07:48.785Z,6.90
2023-08-30T15:10:17.213Z,7.40
2023-08-30T15:12:44.223Z,6.57
2023-08-30T15:15:11.259Z,6.97
2023-08-30T15:17:37.989Z,6.60
2023-08-30T15:20:05.320Z,7.37
2023-08-30T15:22:33.559Z,7.37
2023-08-30T15:25:02.908Z,7.73
2023-08-30T15:27:30.435Z,8.67
2023-08-30T15:29:57.538Z,8.17
2023-08-30T15:32:25.718Z,10.10
2023-08-30T15:34:53.087Z,8.83
2023-08-30T15:37:20.074Z,8.93
2023-08-30T15:39:47.332Z,9.83
2023-08-30T15:42:14.176Z,10.37
2023-08-30T15:44:41.103Z,9.27
2023-08-30T15:47:08.221Z,10.53
2023-08-30T15:49:36.637Z,10.00
2023-08-30T15:52:03.658Z,11.63
2023-08-30T15:54:30.467Z,10.97
2023-08-30T15:56:57.384Z,9.83
2023-08-30T15:59:24.253Z,9.60
2023-08-30T16:01:51.247Z,9.73
2023-08-30T16:04:18.506Z,9.83
2023-08-30T16:06:46.087Z,10.07
2023-08-30T16:09:13.639Z,9.87
2023-08-30T16:11:40.433Z,9.70
2023-08-30T16:14:07.611Z,10.23
2023-08-30T16:16:35.064Z,12.13
2023-08-30T16:19:02.743Z,11.60
2023-08-30T16:21:29.514Z,12.80
2023-08-30T16:23:56.477Z,13.27
2023-08-30T16:26:23.508Z,14.33
2023-08-30T16:28:50.391Z,13.97
2023-08-30T16:31:17.210Z,14.27
2023-08-30T16:33:44.172Z,13.17
2023-08-30T16:36:11.073Z,12.93
2023-08-30T16:38:38.028Z,15.40
2023-08-30T16:41:05.695Z,15.90
2023-08-30T16:43:33.001Z,14.10
2023-08-30T16:46:00.007Z,15.43
2023-08-30T16:48:27.789Z,14.93
2023-08-30T16:50:55.124Z,14.67
2023-08-30T16:53:22.188Z,15.07
2023-08-30T16:55:49.365Z,15.67
2023-08-30T16:58:16.505Z,13.60
2023-08-30T17:00:44.082Z,14.83
2023-08-30T17:03:11.344Z,16.00
2023-08-30T17:05:41.498Z,18.00
2023-08-30T17:08:08.544Z,17.10
2023-08-30T17:10:37.852Z,17.80
2023-08-30T17:13:05.732Z,18.70
2023-08-30T17:15:32.905Z,18.50
2023-08-30T17:17:59.767Z,19.40
2023-08-30T17:20:26.756Z,20.93
2023-08-30T17:22:53.731Z,22.23
2023-08-30T17:25:21.236Z,21.47
2023-08-30T17:27:48.156Z,22.00
2023-08-30T17:30:15.404Z,24.53
2023-08-30T17:32:43.421Z,25.07
2023-08-30T17:35:10.531Z,24.50
2023-08-30T17:37:37.283Z,25.13
2023-08-30T17:40:07.063Z,26.67
2023-08-30T17:42:34.097Z,27.70
2023-08-30T17:45:01.167Z,27.07
2023-08-30T17:47:29.936Z,26.50
2023-08-30T17:49:56.987Z,32.70
2023-08-30T17:52:24.490Z,25.97
2023-08-30T17:54:51.510Z,28.70
2023-08-30T17:57:18.544Z,29.63
2023-08-30T17:59:45.703Z,27.43
2023-08-30T18:02:13.016Z,28.00
2023-08-30T18:04:40.804Z,29.13
2023-08-30T18:07:07.907Z,29.20
2023-08-30T18:09:34.869Z,29.07
2023-08-30T18:12:05.149Z,24.77
2023-08-30T18:14:32.261Z,27.20
2023-08-30T18:16:59.616Z,26.20
2023-08-30T18:19:27.466Z,25.63
2023-08-30T18:21:54.583Z,25.60
2023-08-30T18:24:23.239Z,24.37
2023-08-30T18:26:51.850Z,24.33
2023-08-30T18:29:27.117Z,28.57
2023-08-30T18:31:54.429Z,26.80
2023-08-30T18:34:21.641Z,29.53
2023-08-30T18:36:48.467Z,28.27
2023-08-30T18:39:18.504Z,26.63
2023-08-30T18:41:45.606Z,27.63
2023-08-30T18:44:12.884Z,27.50
2023-08-30T18:46:40.064Z,29.50
2023-08-30T18:49:07.259Z,28.47
2023-08-30T18:51:34.787Z,27.17
2023-08-30T18:54:05.594Z,26.93
2023-08-30T18:56:33.180Z,25.80
2023-08-30T18:59:00.578Z,27.03
2023-08-30T19:01:32.219Z,30.50
2023-08-30T19:03:59.373Z,28.30
2023-08-30T19:06:27.611Z,29.23
2023-08-30T19:08:54.927Z,27.83
2023-08-30T19:11:22.175Z,25.80
2023-08-30T19:13:49.214Z,27.40
2023-08-30T19:16:18.655Z,27.33
2023-08-30T19:18:47.629Z,26.17
2023-08-30T19:21:15.954Z,27.10
2023-08-30T19:23:45.179Z,26.57
2023-08-30T19:26:14.759Z,27.23
2023-08-30T19:28:41.752Z,27.03
2023-08-30T19:31:09.356Z,25.47
2023-08-30T19:33:36.538Z,27.47
2023-08-30T19:36:03.711Z,27.37
2023-08-30T19:38:31.098Z,27.80
2023-08-30T19:40:58.467Z,27.47
2023-08-30T19:43:25.409Z,28.03
2023-08-30T19:46:06.099Z,26.73
2023-08-30T19:48:33.595Z,25.77
2023-08-30T19:51:01.951Z,26.47
2023-08-30T19:53:33.025Z,24.83
2023-08-30T19:56:02.225Z,27.03
2023-08-30T19:58:29.102Z,25.83
2023-08-30T20:01:07.421Z,24.70
2023-08-30T20:03:35.685Z,25.60
2023-08-30T20:06:04.618Z,25.77
2023-08-30T20:08:31.740Z,23.97
2023-08-30T20:11:04.645Z,25.10
2023-08-30T20:13:31.870Z,23.53
2023-08-30T20:16:03.838Z,24.00
2023-08-30T20:18:31.110Z,24.57
2023-08-30T20:20:59.833Z,22.67
2023-08-30T20:23:27.506Z,22.83
2023-08-30T20:25:54.585Z,21.63
2023-08-30T20:28:21.777Z,22.90
2023-08-30T20:30:50.467Z,22.67
2023-08-30T20:33:17.916Z,24.87
2023-08-30T20:35:45.859Z,24.33
2023-08-30T20:38:12.872Z,22.40
2023-08-30T20:40:43.502Z,22.70
2023-08-30T20:43:11.391Z,23.03
2023-08-30T20:45:38.879Z,23.20
2023-08-30T20:48:06.569Z,22.90
2023-08-30T20:50:36.714Z,23.10
2023-08-30T20:53:06.468Z,24.90
2023-08-30T20:55:41.561Z,23.20
2023-08-30T20:58:08.710Z,24.03
2023-08-30T21:00:35.697Z,23.60
2023-08-30T21:03:06.857Z,24.03
2023-08-30T21:05:34.310Z,25.07
2023-08-30T21:08:02.554Z,23.73
2023-08-30T21:10:29.919Z,24.40
2023-08-30T21:13:05.124Z,25.03
2023-08-30T21:15:38.085Z,25.07
2023-08-30T21:18:05.520Z,26.37
2023-08-30T21:20:32.760Z,27.57
2023-08-30T21:23:00.505Z,28.17
2023-08-30T21:25:36.977Z,26.67
2023-08-30T21:28:04.233Z,27.50
2023-08-30T21:30:32.113Z,28.93
2023-08-30T21:32:59.295Z,30.27
2023-08-30T21:35:26.248Z,29.37
2023-08-30T21:37:53.287Z,27.40
2023-08-30T21:40:20.589Z,30.70
2023-08-30T21:42:47.544Z,30.00
2023-08-30T21:45:14.960Z,31.20
2023-08-30T21:47:41.939Z,31.13
2023-08-30T21:50:09.251Z,31.17
2023-08-30T21:52:36.493Z,32.23
2023-08-30T21:55:08.800Z,30.53
2023-08-30T21:57:35.898Z,30.53
2023-08-30T22:00:02.898Z,30.47
2023-08-30T22:02:32.517Z,28.67
2023-08-30T22:04:59.678Z,30.00
2023-08-30T22:07:26.506Z,28.70
2023-08-30T22:09:53.415Z,28.40
2023-08-30T22:12:21.112Z,27.17
2023-08-30T22:14:50.147Z,27.37
2023-08-30T22:17:17.391Z,29.10
2023-08-30T22:19:44.376Z,26.13
2023-08-30T22:22:11.460Z,25.47
2023-08-30T22:24:38.343Z,22.83
2023-08-30T22:27:05.513Z,18.97
2023-08-30T22:29:32.628Z,16.83
2023-08-30T22:31:59.763Z,15.53
2023-08-30T22:34:27.523Z,15.57
2023-08-30T22:36:55.701Z,17.03
2023-08-30T22:39:23.115Z,16.43
2023-08-30T22:41:50.124Z,17.80
2023-08-30T22:44:17.015Z,19.80
2023-08-30T22:46:44.044Z,20.07
2023-08-30T22:49:11.009Z,23.30
2023-08-30T22:51:52.014Z,22.30
2023-08-30T22:54:22.495Z,23.33
2023-08-30T22:56:50.306Z,25.60
2023-08-30T22:59:17.676Z,23.83
2023-08-30T23:01:46.339Z,23.60
2023-08-30T23:04:13.372Z,21.93
2023-08-30T23:06:40.353Z,22.87
2023-08-30T23:09:08.056Z,22.03
2023-08-30T23:11:35.048Z,19.73
2023-08-30T23:14:02.589Z,20.13
2023-08-30T23:16:29.555Z,19.87
2023-08-30T23:18:56.483Z,19.40
2023-08-30T23:21:23.309Z,19.50
2023-08-30T23:23:50.159Z,18.53
2023-08-30T23:26:17.471Z,17.50
2023-08-30T23:28:45.219Z,17.57
2023-08-30T23:31:13.251Z,16.27
2023-08-30T23:33:41.759Z,17.57
2023-08-30T23:36:08.881Z,16.60
2023-08-30T23:38:39.772Z,18.07
2023-08-30T23:41:07.787Z,16.30
2023-08-30T23:43:34.867Z,14.70
2023-08-30T23:46:01.963Z,14.33
2023-08-30T23:48:29.186Z,14.00
2023-08-30T23:50:56.093Z,14.40
2023-08-30T23:53:24.589Z,14.67
2023-08-30T23:55:55.013Z,14.40
2023-08-30T23:58:25.226Z,14.83
